sensor_id;sensor_type;location;lat;lon;timestamp;pressure;altitude;pressure_sealevel;temperature
69785;BMP280;14177;51.520;6.764;2024-02-26T00:00:10;99657.19;;;6.69
69785;BMP280;14177;51.520;6.764;2024-02-26T00:02:38;99659.88;;;6.66
69785;BMP280;14177;51.520;6.764;2024-02-26T00:05:07;99654.66;;;6.68
69785;BMP280;14177;51.520;6.764;2024-02-26T00:07:35;99652.13;;;6.66
69785;BMP280;14177;51.520;6.764;2024-02-26T00:10:03;99642.69;;;6.65
69785;BMP280;14177;51.520;6.764;2024-02-26T00:12:30;99647.84;;;6.65
69785;BMP280;14177;51.520;6.764;2024-02-26T00:14:57;99645.28;;;6.65
69785;BMP280;14177;51.520;6.764;2024-02-26T00:17:25;99644.47;;;6.63
69785;BMP280;14177;51.520;6.764;2024-02-26T00:19:52;99649.63;;;6.63
69785;BMP280;14177;51.520;6.764;2024-02-26T00:22:20;99642.78;;;6.62
69785;BMP280;14177;51.520;6.764;2024-02-26T00:24:48;99651.44;;;6.61
69785;BMP280;14177;51.520;6.764;2024-02-26T00:27:15;99660.06;;;6.60
69785;BMP280;14177;51.520;6.764;2024-02-26T00:29:43;99672.16;;;6.58
69785;BMP280;14177;51.520;6.764;2024-02-26T00:32:10;99675.63;;;6.57
69785;BMP280;14177;51.520;6.764;2024-02-26T00:34:36;99668.03;;;6.54
69785;BMP280;14177;51.520;6.764;2024-02-26T00:37:04;99667.13;;;6.55
69785;BMP280;14177;51.520;6.764;2024-02-26T00:39:31;99656.91;;;6.52
69785;BMP280;14177;51.520;6.764;2024-02-26T00:41:58;99653.53;;;6.50
69785;BMP280;14177;51.520;6.764;2024-02-26T00:44:25;99647.56;;;6.48
69785;BMP280;14177;51.520;6.764;2024-02-26T00:46:52;99655.41;;;6.45
69785;BMP280;14177;51.520;6.764;2024-02-26T00:49:19;99662.25;;;6.46
69785;BMP280;14177;51.520;6.764;2024-02-26T00:51:46;99657.00;;;6.49
69785;BMP280;14177;51.520;6.764;2024-02-26T00:54:13;99658.78;;;6.47
69785;BMP280;14177;51.520;6.764;2024-02-26T00:56:40;99651.94;;;6.46
69785;BMP280;14177;51.520;6.764;2024-02-26T00:59:07;99644.19;;;6.46
69785;BMP280;14177;51.520;6.764;2024-02-26T01:01:34;99643.34;;;6.46
69785;BMP280;14177;51.520;6.764;2024-02-26T01:04:02;99639.06;;;6.45
69785;BMP280;14177;51.520;6.764;2024-02-26T01:06:30;99634.88;;;6.42
69785;BMP280;14177;51.520;6.764;2024-02-26T01:08:57;99640.91;;;6.41
69785;BMP280;14177;51.520;6.764;2024-02-26T01:11:24;99628.03;;;6.41
69785;BMP280;14177;51.520;6.764;2024-02-26T01:13:51;99632.38;;;6.39
69785;BMP280;14177;51.520;6.764;2024-02-26T01:16:23;99641.91;;;6.37
69785;BMP280;14177;51.520;6.764;2024-02-26T01:18:50;99635.88;;;6.37
69785;BMP280;14177;51.520;6.764;2024-02-26T01:21:18;99633.28;;;6.38
69785;BMP280;14177;51.520;6.764;2024-02-26T01:23:45;99639.25;;;6.39
69785;BMP280;14177;51.520;6.764;2024-02-26T01:26:12;99659.06;;;6.38
69785;BMP280;14177;51.520;6.764;2024-02-26T01:28:39;99672.75;;;6.40
69785;BMP280;14177;51.520;6.764;2024-02-26T01:31:06;99677.88;;;6.42
69785;BMP280;14177;51.520;6.764;2024-02-26T01:33:36;99679.56;;;6.43
69785;BMP280;14177;51.520;6.764;2024-02-26T01:36:03;99678.72;;;6.42
69785;BMP280;14177;51.520;6.764;2024-02-26T01:38:30;99661.50;;;6.43
69785;BMP280;14177;51.520;6.764;2024-02-26T01:40:58;99652.06;;;6.42
69785;BMP280;14177;51.520;6.764;2024-02-26T01:43:25;99647.78;;;6.42
69785;BMP280;14177;51.520;6.764;2024-02-26T01:45:53;99648.66;;;6.41
69785;BMP280;14177;51.520;6.764;2024-02-26T01:48:20;99660.66;;;6.42
69785;BMP280;14177;51.520;6.764;2024-02-26T01:50:48;99657.28;;;6.40
69785;BMP280;14177;51.520;6.764;2024-02-26T01:53:16;99669.31;;;6.41
69785;BMP280;14177;51.520;6.764;2024-02-26T01:55:43;99668.53;;;6.38
69785;BMP280;14177;51.520;6.764;2024-02-26T01:58:11;99668.63;;;6.35
69785;BMP280;14177;51.520;6.764;2024-02-26T02:00:39;99667.00;;;6.32
69785;BMP280;14177;51.520;6.764;2024-02-26T02:03:06;99672.19;;;6.31
69785;BMP280;14177;51.520;6.764;2024-02-26T02:05:34;99662.72;;;6.31
69785;BMP280;14177;51.520;6.764;2024-02-26T02:08:05;99670.56;;;6.28
69785;BMP280;14177;51.520;6.764;2024-02-26T02:10:32;99667.97;;;6.28
69785;BMP280;14177;51.520;6.764;2024-02-26T02:13:00;99682.59;;;6.28
69785;BMP280;14177;51.520;6.764;2024-02-26T02:15:27;99677.44;;;6.28
69785;BMP280;14177;51.520;6.764;2024-02-26T02:17:54;99676.63;;;6.26
69785;BMP280;14177;51.520;6.764;2024-02-26T02:20:31;99672.34;;;6.26
69785;BMP280;14177;51.520;6.764;2024-02-26T02:23:00;99673.16;;;6.27
69785;BMP280;14177;51.520;6.764;2024-02-26T02:25:27;99679.19;;;6.27
69785;BMP280;14177;51.520;6.764;2024-02-26T02:27:55;99672.34;;;6.26
69785;BMP280;14177;51.520;6.764;2024-02-26T02:30:27;99674.91;;;6.26
69785;BMP280;14177;51.520;6.764;2024-02-26T02:32:56;99679.22;;;6.26
69785;BMP280;14177;51.520;6.764;2024-02-26T02:35:25;99671.53;;;6.24
69785;BMP280;14177;51.520;6.764;2024-02-26T02:37:53;99676.69;;;6.24
69785;BMP280;14177;51.520;6.764;2024-02-26T02:40:20;99681.84;;;6.24
69785;BMP280;14177;51.520;6.764;2024-02-26T02:42:47;99678.41;;;6.24
69785;BMP280;14177;51.520;6.764;2024-02-26T02:45:14;99681.00;;;6.24
69785;BMP280;14177;51.520;6.764;2024-02-26T02:47:41;99682.75;;;6.23
69785;BMP280;14177;51.520;6.764;2024-02-26T02:50:09;99680.19;;;6.23
69785;BMP280;14177;51.520;6.764;2024-02-26T02:52:36;99681.94;;;6.21
69785;BMP280;14177;51.520;6.764;2024-02-26T02:55:04;99687.91;;;6.23
69785;BMP280;14177;51.520;6.764;2024-02-26T02:57:32;99683.66;;;6.22
69785;BMP280;14177;51.520;6.764;2024-02-26T02:59:59;99685.34;;;6.22
69785;BMP280;14177;51.520;6.764;2024-02-26T03:02:26;99683.66;;;6.21
69785;BMP280;14177;51.520;6.764;2024-02-26T03:04:53;99684.56;;;6.20
69785;BMP280;14177;51.520;6.764;2024-02-26T03:07:20;99681.94;;;6.21
69785;BMP280;14177;51.520;6.764;2024-02-26T03:09:48;99683.66;;;6.22
69785;BMP280;14177;51.520;6.764;2024-02-26T03:12:15;99691.41;;;6.21
69785;BMP280;14177;51.520;6.764;2024-02-26T03:14:42;99683.66;;;6.21
69785;BMP280;14177;51.520;6.764;2024-02-26T03:17:09;99688.88;;;6.19
69785;BMP280;14177;51.520;6.764;2024-02-26T03:19:36;99694.03;;;6.19
69785;BMP280;14177;51.520;6.764;2024-02-26T03:22:03;99700.91;;;6.20
69785;BMP280;14177;51.520;6.764;2024-02-26T03:24:30;99699.19;;;6.19
69785;BMP280;14177;51.520;6.764;2024-02-26T03:26:57;99693.97;;;6.22
69785;BMP280;14177;51.520;6.764;2024-02-26T03:29:24;99699.94;;;6.23
69785;BMP280;14177;51.520;6.764;2024-02-26T03:31:51;99705.97;;;6.23
69785;BMP280;14177;51.520;6.764;2024-02-26T03:34:18;99704.28;;;6.22
69785;BMP280;14177;51.520;6.764;2024-02-26T03:36:46;99700.81;;;6.23
69785;BMP280;14177;51.520;6.764;2024-02-26T03:39:13;99704.28;;;6.22
69785;BMP280;14177;51.520;6.764;2024-02-26T03:41:41;99704.28;;;6.22
69785;BMP280;14177;51.520;6.764;2024-02-26T03:44:08;99692.28;;;6.21
69785;BMP280;14177;51.520;6.764;2024-02-26T03:46:35;99694.88;;;6.20
69785;BMP280;14177;51.520;6.764;2024-02-26T03:49:02;99687.19;;;6.18
69785;BMP280;14177;51.520;6.764;2024-02-26T03:51:30;99687.25;;;6.17
69785;BMP280;14177;51.520;6.764;2024-02-26T03:53:58;99697.66;;;6.14
69785;BMP280;14177;51.520;6.764;2024-02-26T03:56:26;99695.19;;;6.11
69785;BMP280;14177;51.520;6.764;2024-02-26T03:58:54;99692.72;;;6.06
69785;BMP280;14177;51.520;6.764;2024-02-26T04:01:21;99691.13;;;6.02
69785;BMP280;14177;51.520;6.764;2024-02-26T04:03:49;99696.38;;;5.99
69785;BMP280;14177;51.520;6.764;2024-02-26T04:06:16;99693.03;;;5.96
69785;BMP280;14177;51.520;6.764;2024-02-26T04:08:47;99685.41;;;5.93
69785;BMP280;14177;51.520;6.764;2024-02-26T04:11:14;99688.91;;;5.91
69785;BMP280;14177;51.520;6.764;2024-02-26T04:13:44;99685.44;;;5.92
69785;BMP280;14177;51.520;6.764;2024-02-26T04:16:16;99689.78;;;5.90
69785;BMP280;14177;51.520;6.764;2024-02-26T04:18:43;99690.75;;;5.86
69785;BMP280;14177;51.520;6.764;2024-02-26T04:21:10;99696.88;;;5.83
69785;BMP280;14177;51.520;6.764;2024-02-26T04:23:37;99696.91;;;5.82
69785;BMP280;14177;51.520;6.764;2024-02-26T04:26:05;99695.22;;;5.81
69785;BMP280;14177;51.520;6.764;2024-02-26T04:28:32;99696.13;;;5.80
69785;BMP280;14177;51.520;6.764;2024-02-26T04:30:59;99690.16;;;5.78
69785;BMP280;14177;51.520;6.764;2024-02-26T04:33:26;99691.00;;;5.78
69785;BMP280;14177;51.520;6.764;2024-02-26T04:35:53;99689.34;;;5.76
69785;BMP280;14177;51.520;6.764;2024-02-26T04:38:20;99697.16;;;5.73
69785;BMP280;14177;51.520;6.764;2024-02-26T04:40:47;99699.81;;;5.70
69785;BMP280;14177;51.520;6.764;2024-02-26T04:43:14;99696.44;;;5.68
69785;BMP280;14177;51.520;6.764;2024-02-26T04:45:42;99705.94;;;5.66
69785;BMP280;14177;51.520;6.764;2024-02-26T04:48:09;99704.31;;;5.62
69785;BMP280;14177;51.520;6.764;2024-02-26T04:50:36;99707.81;;;5.59
69785;BMP280;14177;51.520;6.764;2024-02-26T04:53:04;99709.59;;;5.57
69785;BMP280;14177;51.520;6.764;2024-02-26T04:55:31;99713.94;;;5.55
69785;BMP280;14177;51.520;6.764;2024-02-26T04:57:57;99715.69;;;5.53
69785;BMP280;14177;51.520;6.764;2024-02-26T05:00:24;99720.03;;;5.53
69785;BMP280;14177;51.520;6.764;2024-02-26T05:02:51;99729.53;;;5.51
69785;BMP280;14177;51.520;6.764;2024-02-26T05:05:19;99717.53;;;5.50
69785;BMP280;14177;51.520;6.764;2024-02-26T05:07:46;99721.81;;;5.49
69785;BMP280;14177;51.520;6.764;2024-02-26T05:10:13;99722.72;;;5.48
69785;BMP280;14177;51.520;6.764;2024-02-26T05:12:40;99727.84;;;5.50
69785;BMP280;14177;51.520;6.764;2024-02-26T05:15:10;99722.75;;;5.47
69785;BMP280;14177;51.520;6.764;2024-02-26T05:17:37;99725.41;;;5.45
69785;BMP280;14177;51.520;6.764;2024-02-26T05:20:05;99727.97;;;5.45
69785;BMP280;14177;51.520;6.764;2024-02-26T05:22:34;99722.91;;;5.42
69785;BMP280;14177;51.520;6.764;2024-02-26T05:25:01;99734.09;;;5.41
69785;BMP280;14177;51.520;6.764;2024-02-26T05:27:28;99735.81;;;5.41
69785;BMP280;14177;51.520;6.764;2024-02-26T05:29:55;99750.44;;;5.39
69785;BMP280;14177;51.520;6.764;2024-02-26T05:32:23;99743.66;;;5.36
69785;BMP280;14177;51.520;6.764;2024-02-26T05:34:50;99751.41;;;5.35
69785;BMP280;14177;51.520;6.764;2024-02-26T05:37:17;99750.59;;;5.34
69785;BMP280;14177;51.520;6.764;2024-02-26T05:39:44;99742.00;;;5.34
69785;BMP280;14177;51.520;6.764;2024-02-26T05:42:11;99741.19;;;5.32
69785;BMP280;14177;51.520;6.764;2024-02-26T05:44:38;99740.34;;;5.31
69785;BMP280;14177;51.520;6.764;2024-02-26T05:47:05;99746.41;;;5.30
69785;BMP280;14177;51.520;6.764;2024-02-26T05:49:33;99747.22;;;5.31
69785;BMP280;14177;51.520;6.764;2024-02-26T05:52:00;99748.09;;;5.30
69785;BMP280;14177;51.520;6.764;2024-02-26T05:54:27;99753.22;;;5.31
69785;BMP280;14177;51.520;6.764;2024-02-26T05:56:54;99752.44;;;5.29
69785;BMP280;14177;51.520;6.764;2024-02-26T05:59:22;99756.72;;;5.29
69785;BMP280;14177;51.520;6.764;2024-02-26T06:01:49;99763.63;;;5.27
69785;BMP280;14177;51.520;6.764;2024-02-26T06:04:16;99767.91;;;5.28
69785;BMP280;14177;51.520;6.764;2024-02-26T06:06:46;99767.09;;;5.26
69785;BMP280;14177;51.520;6.764;2024-02-26T06:09:14;99779.94;;;5.27
69785;BMP280;14177;51.520;6.764;2024-02-26T06:11:41;99783.34;;;5.28
69785;BMP280;14177;51.520;6.764;2024-02-26T06:14:08;99772.25;;;5.26
69785;BMP280;14177;51.520;6.764;2024-02-26T06:16:36;99785.03;;;5.29
69785;BMP280;14177;51.520;6.764;2024-02-26T06:19:03;99783.34;;;5.28
69785;BMP280;14177;51.520;6.764;2024-02-26T06:21:30;99800.47;;;5.30
69785;BMP280;14177;51.520;6.764;2024-02-26T06:23:57;99791.88;;;5.30
69785;BMP280;14177;51.520;6.764;2024-02-26T06:26:25;99788.44;;;5.31
69785;BMP280;14177;51.520;6.764;2024-02-26T06:28:55;99792.69;;;5.32
69785;BMP280;14177;51.520;6.764;2024-02-26T06:31:23;99785.78;;;5.34
69785;BMP280;14177;51.520;6.764;2024-02-26T06:33:50;99790.09;;;5.33
69785;BMP280;14177;51.520;6.764;2024-02-26T06:36:17;99787.47;;;5.35
69785;BMP280;14177;51.520;6.764;2024-02-26T06:38:44;99796.94;;;5.34
69785;BMP280;14177;51.520;6.764;2024-02-26T06:41:11;99800.31;;;5.36
69785;BMP280;14177;51.520;6.764;2024-02-26T06:43:38;99801.16;;;5.37
69785;BMP280;14177;51.520;6.764;2024-02-26T06:46:06;99807.16;;;5.37
69785;BMP280;14177;51.520;6.764;2024-02-26T06:48:33;99803.66;;;5.40
69785;BMP280;14177;51.520;6.764;2024-02-26T06:51:01;99804.53;;;5.39
69785;BMP280;14177;51.520;6.764;2024-02-26T06:53:28;99806.22;;;5.40
69785;BMP280;14177;51.520;6.764;2024-02-26T06:55:55;99811.38;;;5.40
69785;BMP280;14177;51.520;6.764;2024-02-26T06:58:22;99808.84;;;5.38
69785;BMP280;14177;51.520;6.764;2024-02-26T07:00:50;99809.66;;;5.40
69785;BMP280;14177;51.520;6.764;2024-02-26T07:03:17;99807.03;;;5.42
69785;BMP280;14177;51.520;6.764;2024-02-26T07:05:44;99817.34;;;5.42
69785;BMP280;14177;51.520;6.764;2024-02-26T07:08:12;99815.63;;;5.42
69785;BMP280;14177;51.520;6.764;2024-02-26T07:10:39;99819.84;;;5.45
69785;BMP280;14177;51.520;6.764;2024-02-26T07:13:07;99823.22;;;5.47
69785;BMP280;14177;51.520;6.764;2024-02-26T07:15:34;99822.34;;;5.48
69785;BMP280;14177;51.520;6.764;2024-02-26T07:18:01;99834.31;;;5.49
69785;BMP280;14177;51.520;6.764;2024-02-26T07:20:30;99833.38;;;5.51
69785;BMP280;14177;51.520;6.764;2024-02-26T07:22:58;99837.72;;;5.51
69785;BMP280;14177;51.520;6.764;2024-02-26T07:25:25;99842.88;;;5.51
69785;BMP280;14177;51.520;6.764;2024-02-26T07:27:52;99840.22;;;5.52
69785;BMP280;14177;51.520;6.764;2024-02-26T07:30:19;99841.97;;;5.52
69785;BMP280;14177;51.520;6.764;2024-02-26T07:32:46;99844.50;;;5.53
69785;BMP280;14177;51.520;6.764;2024-02-26T07:35:17;99851.34;;;5.54
69785;BMP280;14177;51.520;6.764;2024-02-26T07:37:48;99853.91;;;5.56
69785;BMP280;14177;51.520;6.764;2024-02-26T07:40:15;99854.72;;;5.56
69785;BMP280;14177;51.520;6.764;2024-02-26T07:42:42;99856.41;;;5.59
69785;BMP280;14177;51.520;6.764;2024-02-26T07:45:10;99865.81;;;5.60
69785;BMP280;14177;51.520;6.764;2024-02-26T07:47:37;99862.34;;;5.61
69785;BMP280;14177;51.520;6.764;2024-02-26T07:50:08;99856.31;;;5.62
69785;BMP280;14177;51.520;6.764;2024-02-26T07:52:36;99864.06;;;5.62
69785;BMP280;14177;51.520;6.764;2024-02-26T07:55:03;99869.22;;;5.62
69785;BMP280;14177;51.520;6.764;2024-02-26T07:57:34;99869.22;;;5.60
69785;BMP280;14177;51.520;6.764;2024-02-26T08:00:04;99870.03;;;5.62
69785;BMP280;14177;51.520;6.764;2024-02-26T08:02:38;99871.78;;;5.62
69785;BMP280;14177;51.520;6.764;2024-02-26T08:05:06;99887.16;;;5.65
69785;BMP280;14177;51.520;6.764;2024-02-26T08:07:33;99885.50;;;5.62
69785;BMP280;14177;51.520;6.764;2024-02-26T08:10:00;99872.63;;;5.62
69785;BMP280;14177;51.520;6.764;2024-02-26T08:12:27;99887.19;;;5.63
69785;BMP280;14177;51.520;6.764;2024-02-26T08:14:54;99888.03;;;5.64
69785;BMP280;14177;51.520;6.764;2024-02-26T08:17:22;99892.34;;;5.63
69785;BMP280;14177;51.520;6.764;2024-02-26T08:19:49;99902.63;;;5.65
69785;BMP280;14177;51.520;6.764;2024-02-26T08:22:16;99905.19;;;5.65
69785;BMP280;14177;51.520;6.764;2024-02-26T08:24:44;99901.75;;;5.64
69785;BMP280;14177;51.520;6.764;2024-02-26T08:27:11;99905.19;;;5.65
69785;BMP280;14177;51.520;6.764;2024-02-26T08:29:38;99903.47;;;5.65
69785;BMP280;14177;51.520;6.764;2024-02-26T08:32:05;99897.47;;;5.65
69785;BMP280;14177;51.520;6.764;2024-02-26T08:34:33;99903.47;;;5.65
69785;BMP280;14177;51.520;6.764;2024-02-26T08:37:01;99906.84;;;5.67
69785;BMP280;14177;51.520;6.764;2024-02-26T08:39:27;99902.56;;;5.68
69785;BMP280;14177;51.520;6.764;2024-02-26T08:41:55;99896.50;;;5.69
69785;BMP280;14177;51.520;6.764;2024-02-26T08:44:22;99908.50;;;5.70
69785;BMP280;14177;51.520;6.764;2024-02-26T08:46:49;99909.31;;;5.72
69785;BMP280;14177;51.520;6.764;2024-02-26T08:49:17;99917.00;;;5.73
69785;BMP280;14177;51.520;6.764;2024-02-26T08:51:44;99903.28;;;5.73
69785;BMP280;14177;51.520;6.764;2024-02-26T08:54:12;99913.53;;;5.76
69785;BMP280;14177;51.520;6.764;2024-02-26T08:56:39;99915.22;;;5.77
69785;BMP280;14177;51.520;6.764;2024-02-26T08:59:06;99915.22;;;5.77
69785;BMP280;14177;51.520;6.764;2024-02-26T09:01:33;99919.44;;;5.81
69785;BMP280;14177;51.520;6.764;2024-02-26T09:03:59;99920.25;;;5.83
69785;BMP280;14177;51.520;6.764;2024-02-26T09:06:28;99924.47;;;5.84
69785;BMP280;14177;51.520;6.764;2024-02-26T09:08:55;99923.59;;;5.85
69785;BMP280;14177;51.520;6.764;2024-02-26T09:11:27;99930.44;;;5.86
69785;BMP280;14177;51.520;6.764;2024-02-26T09:13:54;99934.69;;;5.88
69785;BMP280;14177;51.520;6.764;2024-02-26T09:16:21;99937.22;;;5.90
69785;BMP280;14177;51.520;6.764;2024-02-26T09:18:48;99939.78;;;5.90
69785;BMP280;14177;51.520;6.764;2024-02-26T09:21:15;99947.59;;;5.88
69785;BMP280;14177;51.520;6.764;2024-02-26T09:23:45;99942.38;;;5.90
69785;BMP280;14177;51.520;6.764;2024-02-26T09:26:12;99948.41;;;5.90
69785;BMP280;14177;51.520;6.764;2024-02-26T09:28:39;99950.91;;;5.92
69785;BMP280;14177;51.520;6.764;2024-02-26T09:31:06;99944.00;;;5.94
69785;BMP280;14177;51.520;6.764;2024-02-26T09:33:33;99945.69;;;5.95
69785;BMP280;14177;51.520;6.764;2024-02-26T09:36:01;99948.25;;;5.95
69785;BMP280;14177;51.520;6.764;2024-02-26T09:38:28;99956.06;;;5.93
69785;BMP280;14177;51.520;6.764;2024-02-26T09:41:02;99961.16;;;5.95
69785;BMP280;14177;51.520;6.764;2024-02-26T09:43:35;99967.19;;;5.94
69785;BMP280;14177;51.520;6.764;2024-02-26T09:46:08;99966.31;;;5.95
69785;BMP280;14177;51.520;6.764;2024-02-26T09:48:37;99970.66;;;5.93
69785;BMP280;14177;51.520;6.764;2024-02-26T09:51:05;99976.66;;;5.93
69785;BMP280;14177;51.520;6.764;2024-02-26T09:53:32;99981.81;;;5.93
69785;BMP280;14177;51.520;6.764;2024-02-26T09:56:00;99984.41;;;5.93
69785;BMP280;14177;51.520;6.764;2024-02-26T09:58:29;99989.50;;;5.95
69785;BMP280;14177;51.520;6.764;2024-02-26T10:01:00;99989.50;;;5.95
69785;BMP280;14177;51.520;6.764;2024-02-26T10:03:38;99990.31;;;5.97
69785;BMP280;14177;51.520;6.764;2024-02-26T10:06:11;100005.78;;;5.97
69785;BMP280;14177;51.520;6.764;2024-02-26T10:08:39;99997.16;;;5.97
69785;BMP280;14177;51.520;6.764;2024-02-26T10:11:10;100001.41;;;6.00
69785;BMP280;14177;51.520;6.764;2024-02-26T10:13:37;99997.97;;;5.99
69785;BMP280;14177;51.520;6.764;2024-02-26T10:16:05;100003.94;;;6.01
69785;BMP280;14177;51.520;6.764;2024-02-26T10:18:49;100003.94;;;6.01
69785;BMP280;14177;51.520;6.764;2024-02-26T10:21:20;100010.78;;;6.02
69785;BMP280;14177;51.520;6.764;2024-02-26T10:23:49;100019.41;;;6.03
69785;BMP280;14177;51.520;6.764;2024-02-26T10:26:20;100018.50;;;6.04
69785;BMP280;14177;51.520;6.764;2024-02-26T10:28:47;100021.03;;;6.05
69785;BMP280;14177;51.520;6.764;2024-02-26T10:31:20;100020.06;;;6.09
69785;BMP280;14177;51.520;6.764;2024-02-26T10:33:48;100020.88;;;6.11
69785;BMP280;14177;51.520;6.764;2024-02-26T10:36:16;100030.28;;;6.14
69785;BMP280;14177;51.520;6.764;2024-02-26T10:38:43;100029.34;;;6.16
69785;BMP280;14177;51.520;6.764;2024-02-26T10:41:14;100022.44;;;6.18
69785;BMP280;14177;51.520;6.764;2024-02-26T10:43:43;100032.69;;;6.20
69785;BMP280;14177;51.520;6.764;2024-02-26T10:46:11;100033.50;;;6.22
69785;BMP280;14177;51.520;6.764;2024-02-26T10:48:38;100034.28;;;6.25
69785;BMP280;14177;51.520;6.764;2024-02-26T10:51:09;100031.59;;;6.30
69785;BMP280;14177;51.520;6.764;2024-02-26T10:53:43;100034.06;;;6.34
69785;BMP280;14177;51.520;6.764;2024-02-26T10:56:15;100046.81;;;6.39
69785;BMP280;14177;51.520;6.764;2024-02-26T10:58:45;100050.19;;;6.42
69785;BMP280;14177;51.520;6.764;2024-02-26T11:01:13;100050.94;;;6.47
69785;BMP280;14177;51.520;6.764;2024-02-26T11:03:41;100063.66;;;6.53
69785;BMP280;14177;51.520;6.764;2024-02-26T11:06:09;100056.63;;;6.58
69785;BMP280;14177;51.520;6.764;2024-02-26T11:08:38;100062.59;;;6.60
69785;BMP280;14177;51.520;6.764;2024-02-26T11:11:05;100074.59;;;6.63
69785;BMP280;14177;51.520;6.764;2024-02-26T11:13:34;100078.81;;;6.65
69785;BMP280;14177;51.520;6.764;2024-02-26T11:16:09;100089.88;;;6.70
69785;BMP280;14177;51.520;6.764;2024-02-26T11:18:39;100088.00;;;6.75
69785;BMP280;14177;51.520;6.764;2024-02-26T11:21:10;100086.25;;;6.77
69785;BMP280;14177;51.520;6.764;2024-02-26T11:23:37;100080.91;;;6.83
69785;BMP280;14177;51.520;6.764;2024-02-26T11:26:09;100079.88;;;6.90
69785;BMP280;14177;51.520;6.764;2024-02-26T11:28:38;100086.56;;;6.97
69785;BMP280;14177;51.520;6.764;2024-02-26T11:31:06;100080.28;;;7.06
69785;BMP280;14177;51.520;6.764;2024-02-26T11:33:35;100086.06;;;7.15
69785;BMP280;14177;51.520;6.764;2024-02-26T11:36:10;100083.31;;;7.21
69785;BMP280;14177;51.520;6.764;2024-02-26T11:38:39;100085.84;;;7.22
69785;BMP280;14177;51.520;6.764;2024-02-26T11:41:07;100075.56;;;7.21
69785;BMP280;14177;51.520;6.764;2024-02-26T11:43:51;100082.44;;;7.20
69785;BMP280;14177;51.520;6.764;2024-02-26T11:46:32;100079.84;;;7.22
69785;BMP280;14177;51.520;6.764;2024-02-26T11:51:54;100090.34;;;7.16
69785;BMP280;14177;51.520;6.764;2024-02-26T11:54:50;100080.91;;;7.15
69785;BMP280;14177;51.520;6.764;2024-02-26T11:59:55;100084.56;;;7.07
69785;BMP280;14177;51.520;6.764;2024-02-26T12:02:45;100088.13;;;7.03
69785;BMP280;14177;51.520;6.764;2024-02-26T12:05:17;100089.91;;;7.01
69785;BMP280;14177;51.520;6.764;2024-02-26T12:07:59;100095.84;;;7.04
69785;BMP280;14177;51.520;6.764;2024-02-26T12:10:28;100094.97;;;7.04
69785;BMP280;14177;51.520;6.764;2024-02-26T12:13:07;100107.81;;;7.07
69785;BMP280;14177;51.520;6.764;2024-02-26T12:15:55;100114.59;;;7.11
69785;BMP280;14177;51.520;6.764;2024-02-26T12:18:23;100114.47;;;7.15
69785;BMP280;14177;51.520;6.764;2024-02-26T12:21:03;100109.16;;;7.21
69785;BMP280;14177;51.520;6.764;2024-02-26T12:23:31;100111.56;;;7.27
69785;BMP280;14177;51.520;6.764;2024-02-26T12:26:00;100110.63;;;7.29
69785;BMP280;14177;51.520;6.764;2024-02-26T12:28:55;100116.63;;;7.30
69785;BMP280;14177;51.520;6.764;2024-02-26T12:32:06;100113.06;;;7.34
69785;BMP280;14177;51.520;6.764;2024-02-26T12:35:29;100115.47;;;7.40
69785;BMP280;14177;51.520;6.764;2024-02-26T12:38:01;100116.28;;;7.42
69785;BMP280;14177;51.520;6.764;2024-02-26T12:41:13;100118.84;;;7.42
69785;BMP280;14177;51.520;6.764;2024-02-26T12:43:53;100118.94;;;7.39
69785;BMP280;14177;51.520;6.764;2024-02-26T12:46:32;100118.06;;;7.40
69785;BMP280;14177;51.520;6.764;2024-02-26T12:49:16;100126.66;;;7.40
69785;BMP280;14177;51.520;6.764;2024-02-26T12:53:32;100125.97;;;7.34
69785;BMP280;14177;51.520;6.764;2024-02-26T12:56:25;100141.38;;;7.37
69785;BMP280;14177;51.520;6.764;2024-02-26T12:59:34;100151.81;;;7.34
69785;BMP280;14177;51.520;6.764;2024-02-26T13:06:38;100165.59;;;7.34
69785;BMP280;14177;51.520;6.764;2024-02-26T13:10:34;100175.16;;;7.31
69785;BMP280;14177;51.520;6.764;2024-02-26T13:13:28;100162.22;;;7.31
69785;BMP280;14177;51.520;6.764;2024-02-26T13:16:10;100184.59;;;7.32
69785;BMP280;14177;51.520;6.764;2024-02-26T13:22:21;100183.59;;;7.37
69785;BMP280;14177;51.520;6.764;2024-02-26T13:25:00;100187.91;;;7.37
69785;BMP280;14177;51.520;6.764;2024-02-26T13:31:28;100191.28;;;7.39
69785;BMP280;14177;51.520;6.764;2024-02-26T13:35:27;100198.94;;;7.43
69785;BMP280;14177;51.520;6.764;2024-02-26T13:38:11;100201.53;;;7.43
69785;BMP280;14177;51.520;6.764;2024-02-26T13:40:46;100203.25;;;7.43
69785;BMP280;14177;51.520;6.764;2024-02-26T13:43:19;100211.81;;;7.45
69785;BMP280;14177;51.520;6.764;2024-02-26T13:45:51;100212.78;;;7.41
69785;BMP280;14177;51.520;6.764;2024-02-26T13:48:31;100225.69;;;7.41
69785;BMP280;14177;51.520;6.764;2024-02-26T13:51:12;100223.03;;;7.44
69785;BMP280;14177;51.520;6.764;2024-02-26T13:54:09;100222.13;;;7.45
69785;BMP280;14177;51.520;6.764;2024-02-26T13:57:07;100223.88;;;7.44
69785;BMP280;14177;51.520;6.764;2024-02-26T14:00:12;100231.56;;;7.47
69785;BMP280;14177;51.520;6.764;2024-02-26T14:02:39;100237.63;;;7.45
69785;BMP280;14177;51.520;6.764;2024-02-26T14:05:07;100229.00;;;7.46
69785;BMP280;14177;51.520;6.764;2024-02-26T14:07:34;100241.03;;;7.47
69785;BMP280;14177;51.520;6.764;2024-02-26T14:10:02;100236.69;;;7.49
69785;BMP280;14177;51.520;6.764;2024-02-26T14:12:29;100236.66;;;7.50
69785;BMP280;14177;51.520;6.764;2024-02-26T14:14:56;100233.34;;;7.44
69785;BMP280;14177;51.520;6.764;2024-02-26T14:17:26;100244.59;;;7.43
69785;BMP280;14177;51.520;6.764;2024-02-26T14:19:53;100242.94;;;7.40
69785;BMP280;14177;51.520;6.764;2024-02-26T14:22:21;100236.91;;;7.40
69785;BMP280;14177;51.520;6.764;2024-02-26T14:24:48;100250.78;;;7.37
69785;BMP280;14177;51.520;6.764;2024-02-26T14:27:15;100249.91;;;7.37
69785;BMP280;14177;51.520;6.764;2024-02-26T14:29:44;100261.19;;;7.34
69785;BMP280;14177;51.520;6.764;2024-02-26T14:32:11;100255.97;;;7.36
69785;BMP280;14177;51.520;6.764;2024-02-26T14:34:38;100254.28;;;7.35
69785;BMP280;14177;51.520;6.764;2024-02-26T14:37:05;100274.06;;;7.36
69785;BMP280;14177;51.520;6.764;2024-02-26T14:39:33;100261.13;;;7.36
69785;BMP280;14177;51.520;6.764;2024-02-26T14:42:01;100275.84;;;7.34
69785;BMP280;14177;51.520;6.764;2024-02-26T14:44:28;100271.59;;;7.31
69785;BMP280;14177;51.520;6.764;2024-02-26T14:46:55;100278.47;;;7.32
69785;BMP280;14177;51.520;6.764;2024-02-26T14:49:22;100278.47;;;7.32
69785;BMP280;14177;51.520;6.764;2024-02-26T14:51:50;100277.59;;;7.32
69785;BMP280;14177;51.520;6.764;2024-02-26T14:54:17;100289.63;;;7.33